Terminal Aerodrome Forecast
Issued by NWS

Home | Current Version | Previous Version | Text Only | Print | Product List | Glossary On
Versions: 1 2 3 4 5 6 7 8 9 10 11 12 13 14 15 16 17 18 19 20 21 22 23 24 25 26 27 28 29 30 31 32 33 34 35 36 37 38
000
FTUS43 KILX 220231 AAA
TAFBMI
TAF AMD
KBMI 220231Z 2203/2224 05015KT P6SM SCT020
     FM220700 05014KT P6SM -FZRASN OVC015
     FM221200 05012KT 6SM -RASN BR OVC015
     FM221500 08017KT 6SM -RA OVC009
     FM221900 08010KT P6SM OVC015=

USA.gov is the U.S. government's official web portal to all federal, state and local government web resources and services.